createdAt,value
2019-04-06T00:00:30.415Z,12.23
2019-04-06T00:02:59.136Z,11.80
2019-04-06T00:05:27.986Z,11.60
2019-04-06T00:07:56.706Z,11.33
2019-04-06T00:10:25.420Z,11.07
2019-04-06T00:12:54.179Z,10.80
2019-04-06T00:15:22.902Z,11.57
2019-04-06T00:17:51.626Z,11.60
2019-04-06T00:20:20.696Z,12.53
2019-04-06T00:22:49.423Z,10.57
2019-04-06T00:25:18.234Z,11.33
2019-04-06T00:27:47.866Z,11.47
2019-04-06T00:30:16.990Z,11.33
2019-04-06T00:32:47.287Z,10.40
2019-04-06T00:35:24.532Z,10.70
2019-04-06T00:37:53.246Z,11.73
2019-04-06T00:40:21.968Z,12.27
2019-04-06T00:42:50.719Z,13.03
2019-04-06T00:45:19.440Z,13.57
2019-04-06T00:47:48.173Z,16.03
2019-04-06T00:50:17.424Z,17.87
2019-04-06T00:52:46.140Z,15.33
2019-04-06T00:55:14.866Z,17.70
2019-04-06T00:57:44.941Z,17.27
2019-04-06T01:00:14.373Z,16.23
2019-04-06T01:02:43.098Z,16.03
2019-04-06T01:05:12.167Z,15.20
2019-04-06T01:07:40.891Z,16.20
2019-04-06T01:10:09.720Z,15.53
2019-04-06T01:12:38.480Z,15.37
2019-04-06T01:15:08.097Z,13.40
2019-04-06T01:17:36.822Z,13.87
2019-04-06T01:20:07.012Z,14.53
2019-04-06T01:22:35.811Z,14.07
2019-04-06T01:25:08.349Z,14.27
2019-04-06T01:27:37.893Z,16.20
2019-04-06T01:30:08.290Z,16.43
2019-04-06T01:32:37.008Z,15.73
2019-04-06T01:35:06.594Z,16.30
2019-04-06T01:37:35.312Z,15.27
2019-04-06T01:40:06.138Z,17.20
2019-04-06T01:42:35.869Z,15.00
2019-04-06T01:45:06.391Z,15.97
2019-04-06T01:47:35.117Z,15.83
2019-04-06T01:50:04.027Z,16.00
2019-04-06T01:52:32.752Z,16.03
2019-04-06T01:55:01.466Z,15.33
2019-04-06T01:57:30.282Z,18.00
2019-04-06T01:59:59.005Z,19.77
2019-04-06T02:02:32.301Z,18.47
2019-04-06T02:05:01.184Z,18.33
2019-04-06T02:07:29.900Z,17.33
2019-04-06T02:09:58.617Z,17.40
2019-04-06T02:12:28.282Z,19.33
2019-04-06T02:14:57.097Z,20.37
2019-04-06T02:17:25.794Z,19.70
2019-04-06T02:19:54.573Z,19.30
2019-04-06T02:22:23.297Z,20.13
2019-04-06T02:24:52.010Z,18.47
2019-04-06T02:27:20.819Z,18.33
2019-04-06T02:29:51.106Z,19.13
2019-04-06T02:32:33.653Z,19.47
2019-04-06T02:35:20.481Z,19.20
2019-04-06T02:37:53.559Z,18.93
2019-04-06T02:40:26.801Z,18.97
2019-04-06T02:43:09.591Z,18.47
2019-04-06T02:45:38.306Z,18.83
2019-04-06T02:48:07.062Z,19.50
2019-04-06T02:50:35.885Z,20.00
2019-04-06T02:53:04.663Z,20.60
2019-04-06T02:55:33.448Z,22.30
2019-04-06T02:58:02.426Z,19.37
2019-04-06T03:00:31.254Z,18.27
2019-04-06T03:03:00.025Z,18.73
2019-04-06T03:05:29.010Z,18.27
2019-04-06T03:07:57.791Z,17.07
2019-04-06T03:10:26.714Z,19.00
2019-04-06T03:12:55.464Z,18.93
2019-04-06T03:15:24.386Z,19.10
2019-04-06T03:17:53.091Z,18.93
2019-04-06T03:20:22.946Z,20.57
2019-04-06T03:22:51.646Z,19.60
2019-04-06T03:25:20.365Z,32.63
2019-04-06T03:27:49.842Z,31.73
2019-04-06T03:30:18.558Z,43.67
2019-04-06T03:32:47.285Z,39.63
2019-04-06T03:35:16.054Z,35.40
2019-04-06T03:37:44.956Z,22.50
2019-04-06T03:40:13.848Z,21.57
2019-04-06T03:42:42.614Z,21.43
2019-04-06T03:45:11.548Z,22.93
2019-04-06T03:47:40.521Z,23.03
2019-04-06T03:50:09.572Z,24.43
2019-04-06T03:52:38.504Z,23.03
2019-04-06T03:55:08.637Z,22.23
2019-04-06T03:57:37.435Z,23.17
2019-04-06T04:00:06.935Z,22.27
2019-04-06T04:02:35.659Z,24.47
2019-04-06T04:05:05.820Z,22.60
2019-04-06T04:07:34.541Z,23.23
2019-04-06T04:10:03.466Z,24.73
2019-04-06T04:12:32.451Z,23.03
2019-04-06T04:15:01.167Z,24.97
2019-04-06T04:17:29.891Z,27.87
2019-04-06T04:19:58.790Z,28.17
2019-04-06T04:22:27.513Z,26.93
2019-04-06T04:24:56.231Z,25.50
2019-04-06T04:27:29.835Z,25.00
2019-04-06T04:29:55.488Z,27.23
2019-04-06T04:32:24.247Z,26.83
2019-04-06T04:34:53.097Z,26.17
2019-04-06T04:37:22.108Z,25.30
2019-04-06T04:39:51.267Z,27.27
2019-04-06T04:42:20.265Z,30.53
2019-04-06T04:44:48.987Z,25.53
2019-04-06T04:47:17.721Z,22.90
2019-04-06T04:49:46.509Z,23.70
2019-04-06T04:52:15.293Z,23.03
2019-04-06T04:54:44.028Z,20.47
2019-04-06T04:57:12.952Z,22.17
2019-04-06T04:59:41.772Z,23.17
2019-04-06T05:02:10.465Z,21.07
2019-04-06T05:04:39.351Z,20.80
2019-04-06T05:07:08.067Z,20.17
2019-04-06T05:09:36.828Z,20.47
2019-04-06T05:12:05.790Z,18.63
2019-04-06T05:14:54.231Z,27.43
2019-04-06T05:17:23.109Z,20.57
2019-04-06T05:19:51.830Z,20.30
2019-04-06T05:22:20.549Z,24.03
2019-04-06T05:24:50.819Z,21.57
2019-04-06T05:27:19.491Z,22.47
2019-04-06T05:29:48.213Z,20.97
2019-04-06T05:32:17.227Z,23.00
2019-04-06T05:34:46.066Z,21.00
2019-04-06T05:37:14.796Z,21.13
2019-04-06T05:39:43.859Z,19.73
2019-04-06T05:42:12.584Z,21.20
2019-04-06T05:44:41.322Z,19.97
2019-04-06T05:47:10.259Z,23.17
2019-04-06T05:49:38.987Z,20.60
2019-04-06T05:52:07.715Z,22.00
2019-04-06T05:54:36.599Z,20.33
2019-04-06T05:57:05.526Z,20.93
2019-04-06T05:59:34.257Z,20.53
2019-04-06T06:02:03.025Z,19.07
2019-04-06T06:04:31.737Z,18.57
2019-04-06T06:07:00.464Z,19.33
2019-04-06T06:09:29.254Z,19.20
2019-04-06T06:11:57.978Z,22.87
2019-04-06T06:14:26.691Z,20.27
2019-04-06T06:16:55.676Z,19.60
2019-04-06T06:19:24.338Z,20.53
2019-04-06T06:21:53.067Z,20.67
2019-04-06T06:24:22.070Z,18.80
2019-04-06T06:26:50.827Z,19.97
2019-04-06T06:29:19.543Z,19.33
2019-04-06T06:31:48.425Z,18.47
2019-04-06T06:34:17.236Z,19.87
2019-04-06T06:36:45.945Z,20.40
2019-04-06T06:39:14.805Z,21.37
2019-04-06T06:41:43.526Z,22.27
2019-04-06T06:44:12.256Z,21.37
2019-04-06T06:46:41.208Z,19.63
2019-04-06T06:49:09.932Z,19.33
2019-04-06T06:51:38.655Z,20.40
2019-04-06T06:54:07.898Z,19.40
2019-04-06T06:56:38.126Z,18.77
2019-04-06T06:59:06.852Z,19.30
2019-04-06T07:01:36.724Z,19.37
2019-04-06T07:04:05.593Z,19.77
2019-04-06T07:06:34.345Z,21.03
2019-04-06T07:09:04.874Z,18.67
2019-04-06T07:11:33.570Z,19.47
2019-04-06T07:14:02.591Z,18.67
2019-04-06T07:16:31.560Z,19.03
2019-04-06T07:19:00.291Z,18.00
2019-04-06T07:21:29.104Z,26.80
2019-04-06T07:23:57.896Z,19.57
2019-04-06T07:26:26.649Z,19.10
2019-04-06T07:28:55.350Z,20.50
2019-04-06T07:31:24.292Z,19.97
2019-04-06T07:33:53.027Z,21.70
2019-04-06T07:36:21.747Z,19.10
2019-04-06T07:38:50.672Z,19.30
2019-04-06T07:41:19.569Z,19.27
2019-04-06T07:43:48.269Z,18.30
2019-04-06T07:46:17.028Z,18.97
2019-04-06T07:48:45.828Z,18.87
2019-04-06T07:51:14.556Z,20.80
2019-04-06T07:53:43.401Z,19.30
2019-04-06T07:56:12.128Z,20.03
2019-04-06T07:58:48.595Z,19.47
2019-04-06T08:01:11.397Z,19.17
2019-04-06T08:03:40.227Z,18.03
2019-04-06T08:06:08.960Z,18.73
2019-04-06T08:08:37.737Z,19.37
2019-04-06T08:11:06.439Z,19.53
2019-04-06T08:13:35.171Z,18.43
2019-04-06T08:16:04.046Z,18.47
2019-04-06T08:18:32.758Z,23.60
2019-04-06T08:21:01.479Z,19.03
2019-04-06T08:23:30.241Z,19.20
2019-04-06T08:25:58.963Z,18.60
2019-04-06T08:28:27.690Z,19.77
2019-04-06T08:30:56.639Z,20.30
2019-04-06T08:33:25.383Z,19.37
2019-04-06T08:35:54.108Z,17.60
2019-04-06T08:38:22.955Z,19.07
2019-04-06T08:40:51.674Z,17.40
2019-04-06T08:43:20.396Z,17.93
2019-04-06T08:45:49.379Z,19.47
2019-04-06T08:48:18.157Z,19.57
2019-04-06T08:50:46.885Z,19.60
2019-04-06T08:53:15.666Z,18.93
2019-04-06T08:55:44.579Z,19.93
2019-04-06T08:58:13.469Z,18.07
2019-04-06T09:00:42.440Z,19.40
2019-04-06T09:03:11.173Z,19.33
2019-04-06T09:05:39.937Z,30.37
2019-04-06T09:08:08.757Z,19.10
2019-04-06T09:10:37.436Z,19.33
2019-04-06T09:13:06.172Z,17.90
2019-04-06T09:15:34.950Z,18.73
2019-04-06T09:18:03.676Z,17.87
2019-04-06T09:20:32.398Z,18.73
2019-04-06T09:23:01.196Z,18.40
2019-04-06T09:25:30.229Z,17.93
2019-04-06T09:27:59.023Z,19.30
2019-04-06T09:30:27.842Z,17.93
2019-04-06T09:32:56.575Z,18.00
2019-04-06T09:35:25.295Z,18.00
2019-04-06T09:37:54.065Z,17.73
2019-04-06T09:40:22.792Z,16.80
2019-04-06T09:42:51.522Z,17.37
2019-04-06T09:45:36.837Z,18.10
2019-04-06T09:48:07.186Z,17.57
2019-04-06T09:50:37.474Z,16.03
2019-04-06T09:53:07.804Z,15.87
2019-04-06T09:55:50.017Z,16.50
2019-04-06T09:58:36.625Z,15.57
2019-04-06T10:01:09.603Z,16.77
2019-04-06T10:03:55.363Z,14.67
2019-04-06T10:06:40.585Z,15.50
2019-04-06T10:09:16.673Z,17.53
2019-04-06T10:11:46.977Z,16.80
2019-04-06T10:14:33.582Z,17.53
2019-04-06T10:17:03.906Z,14.83
2019-04-06T10:19:49.446Z,16.43
2019-04-06T10:22:37.902Z,15.60
2019-04-06T10:25:10.940Z,16.00
2019-04-06T10:27:43.965Z,17.73
2019-04-06T10:30:30.700Z,16.77
2019-04-06T10:33:09.819Z,17.73
2019-04-06T10:35:45.946Z,18.57
2019-04-06T10:38:16.248Z,16.87
2019-04-06T10:40:52.782Z,15.83
2019-04-06T10:43:23.077Z,17.23
2019-04-06T10:46:02.682Z,17.10
2019-04-06T10:48:39.285Z,17.30
2019-04-06T10:51:12.563Z,16.53
2019-04-06T10:53:51.839Z,15.70
2019-04-06T10:56:31.431Z,16.97
2019-04-06T10:59:03.371Z,17.23
2019-04-06T11:01:45.959Z,16.63
2019-04-06T11:04:19.017Z,16.53
2019-04-06T11:07:04.687Z,18.40
2019-04-06T11:09:46.819Z,17.83
2019-04-06T11:12:35.515Z,18.27
2019-04-06T11:15:18.813Z,17.60
2019-04-06T11:17:49.203Z,18.63
2019-04-06T11:20:25.550Z,20.47
2019-04-06T11:22:56.035Z,17.50
2019-04-06T11:25:42.518Z,18.70
2019-04-06T11:28:21.784Z,17.80
2019-04-06T11:31:01.124Z,17.60
2019-04-06T11:33:34.599Z,18.10
2019-04-06T11:36:07.882Z,17.67
2019-04-06T11:38:53.549Z,17.63
2019-04-06T11:41:23.846Z,20.63
2019-04-06T11:43:57.173Z,16.37
2019-04-06T11:46:43.871Z,15.90
2019-04-06T11:49:14.171Z,18.83
2019-04-06T11:51:50.574Z,16.10
2019-04-06T11:54:30.100Z,16.57
2019-04-06T11:57:16.598Z,16.60
2019-04-06T11:59:53.045Z,14.93
2019-04-06T12:02:26.188Z,15.23
2019-04-06T12:05:11.505Z,15.70
2019-04-06T12:07:45.001Z,15.37
2019-04-06T12:10:15.301Z,15.43
2019-04-06T12:12:51.478Z,14.30
2019-04-06T12:15:21.811Z,13.67
2019-04-06T12:17:58.671Z,13.73
2019-04-06T12:20:38.332Z,13.10
2019-04-06T12:23:17.708Z,14.00
2019-04-06T12:25:53.776Z,13.17
2019-04-06T12:28:33.247Z,13.20
2019-04-06T12:31:03.523Z,14.17
2019-04-06T12:33:49.054Z,13.50
2019-04-06T12:36:31.717Z,11.90
2019-04-06T12:39:08.114Z,12.20
2019-04-06T12:41:44.173Z,11.97
2019-04-06T12:44:30.732Z,11.43
2019-04-06T12:47:19.611Z,11.03
2019-04-06T12:50:06.350Z,11.47
2019-04-06T12:52:39.671Z,10.10
2019-04-06T12:55:21.749Z,12.13
2019-04-06T12:57:54.787Z,11.23
2019-04-06T13:00:34.124Z,10.33
2019-04-06T13:03:07.163Z,11.00
2019-04-06T13:05:37.764Z,10.83
2019-04-06T13:08:20.325Z,11.33
2019-04-06T13:10:56.398Z,10.33
2019-04-06T13:13:33.185Z,12.03
2019-04-06T13:16:06.432Z,10.13
2019-04-06T13:18:39.567Z,10.20
2019-04-06T13:21:10.330Z,9.73
2019-04-06T13:23:40.774Z,9.23
2019-04-06T13:26:23.371Z,8.97
2019-04-06T13:29:09.714Z,9.43
2019-04-06T13:31:40.055Z,9.43
2019-04-06T13:34:16.947Z,9.77
2019-04-06T13:36:50.772Z,9.03
2019-04-06T13:39:37.366Z,8.63
2019-04-06T13:42:23.687Z,8.30
2019-04-06T13:45:06.100Z,9.03
2019-04-06T13:47:45.857Z,8.80
2019-04-06T13:50:24.896Z,8.07
2019-04-06T13:52:55.354Z,9.23
2019-04-06T13:55:31.855Z,9.23
2019-04-06T13:58:05.382Z,8.87
2019-04-06T14:00:51.907Z,9.20
2019-04-06T14:03:22.295Z,8.60
2019-04-06T14:05:55.276Z,9.30
2019-04-06T14:08:28.821Z,10.00
2019-04-06T14:11:14.521Z,8.63
2019-04-06T14:14:04.658Z,9.27
2019-04-06T14:16:46.929Z,8.40
2019-04-06T14:19:29.520Z,7.93
2019-04-06T14:22:00.225Z,7.80
2019-04-06T14:24:36.562Z,8.33
2019-04-06T14:27:09.720Z,10.67
2019-04-06T14:29:43.586Z,7.90
2019-04-06T14:32:30.322Z,9.27
2019-04-06T14:35:06.495Z,8.20
2019-04-06T14:37:42.708Z,7.97
2019-04-06T14:40:25.352Z,7.83
2019-04-06T14:43:10.722Z,7.97
2019-04-06T14:45:53.499Z,7.73
2019-04-06T14:48:40.122Z,7.47
2019-04-06T14:51:25.831Z,9.00
2019-04-06T14:53:56.190Z,8.83
2019-04-06T14:56:38.845Z,8.43
2019-04-06T14:59:09.132Z,8.60
2019-04-06T15:01:51.078Z,9.30
2019-04-06T15:04:14.609Z,9.03
2019-04-06T15:06:50.970Z,8.67
2019-04-06T15:09:36.477Z,8.33
2019-04-06T15:12:09.767Z,8.43
2019-04-06T15:14:43.616Z,8.90
2019-04-06T15:17:13.947Z,8.10
2019-04-06T15:19:46.997Z,8.53
2019-04-06T15:22:29.425Z,8.87
2019-04-06T15:25:05.963Z,8.60
2019-04-06T15:27:39.412Z,8.23
2019-04-06T15:30:27.975Z,8.30
2019-04-06T15:32:58.354Z,9.03
2019-04-06T15:35:34.604Z,8.40
2019-04-06T15:38:21.393Z,8.57
2019-04-06T15:41:00.814Z,8.70
2019-04-06T15:43:31.252Z,8.60
2019-04-06T15:46:13.494Z,8.30
2019-04-06T15:48:50.015Z,8.70
2019-04-06T15:51:23.444Z,8.70
2019-04-06T15:53:56.489Z,9.67
2019-04-06T15:56:26.787Z,8.43
2019-04-06T15:58:59.990Z,8.50
2019-04-06T16:01:33.399Z,9.33
2019-04-06T16:04:03.806Z,8.23
2019-04-06T16:06:37.290Z,8.00
2019-04-06T16:09:25.398Z,7.43
2019-04-06T16:12:12.214Z,8.17
2019-04-06T16:14:45.638Z,8.07
2019-04-06T16:17:15.940Z,8.10
2019-04-06T16:19:52.547Z,7.33
2019-04-06T16:22:22.973Z,7.47
2019-04-06T16:24:53.403Z,7.50
2019-04-06T16:27:35.625Z,7.20
2019-04-06T16:30:25.976Z,7.00
2019-04-06T16:32:59.331Z,7.27
2019-04-06T16:35:45.755Z,7.43
2019-04-06T16:38:25.236Z,6.87
2019-04-06T16:40:58.338Z,8.10
2019-04-06T16:43:32.363Z,7.30
2019-04-06T16:46:09.082Z,7.33
2019-04-06T16:48:43.321Z,7.50
2019-04-06T16:51:13.635Z,7.70
2019-04-06T16:53:43.933Z,7.57
2019-04-06T16:56:18.448Z,8.87
2019-04-06T16:58:58.007Z,7.80
2019-04-06T17:01:35.678Z,7.80
2019-04-06T17:04:09.038Z,7.10
2019-04-06T17:06:45.452Z,7.90
2019-04-06T17:09:22.053Z,7.43
2019-04-06T17:12:07.697Z,6.60
2019-04-06T17:14:54.181Z,6.80
2019-04-06T17:17:24.500Z,6.10
2019-04-06T17:20:00.819Z,6.77
2019-04-06T17:22:48.275Z,6.40
2019-04-06T17:25:19.010Z,6.10
2019-04-06T17:27:49.375Z,5.77
2019-04-06T17:30:20.164Z,5.93
2019-04-06T17:32:53.321Z,6.50
2019-04-06T17:35:40.290Z,6.33
2019-04-06T17:38:10.576Z,6.33
2019-04-06T17:40:41.206Z,6.27
2019-04-06T17:43:28.366Z,6.90
2019-04-06T17:46:13.976Z,6.87
2019-04-06T17:48:56.213Z,6.90
2019-04-06T17:51:26.506Z,6.97
2019-04-06T17:53:59.656Z,6.70
2019-04-06T17:56:49.290Z,7.70
2019-04-06T17:59:34.994Z,7.27
2019-04-06T18:02:22.228Z,6.57
2019-04-06T18:05:07.915Z,6.30
2019-04-06T18:07:54.753Z,6.60
2019-04-06T18:10:41.218Z,6.17
2019-04-06T18:13:26.747Z,6.40
2019-04-06T18:15:55.545Z,6.53
2019-04-06T18:18:24.259Z,6.07
2019-04-06T18:20:53.177Z,8.87
2019-04-06T18:23:21.912Z,12.93
2019-04-06T18:25:50.641Z,8.20
2019-04-06T18:28:19.759Z,7.60
2019-04-06T18:30:50.153Z,6.70
2019-04-06T18:33:20.459Z,6.93
2019-04-06T18:35:49.600Z,6.80
2019-04-06T18:38:19.959Z,6.77
2019-04-06T18:40:48.674Z,7.07
2019-04-06T18:43:17.433Z,6.50
2019-04-06T18:45:46.510Z,5.93
2019-04-06T18:48:15.359Z,6.97
2019-04-06T18:50:44.470Z,7.17
2019-04-06T18:53:13.677Z,7.20
2019-04-06T18:55:42.765Z,6.47
2019-04-06T18:58:13.064Z,6.60
2019-04-06T19:00:42.318Z,5.50
2019-04-06T19:03:15.103Z,6.33
2019-04-06T19:05:41.607Z,5.83
2019-04-06T19:08:10.275Z,5.60
2019-04-06T19:10:39.601Z,5.97
2019-04-06T19:13:08.751Z,5.47
2019-04-06T19:15:37.752Z,5.90
2019-04-06T19:18:06.449Z,5.83
2019-04-06T19:20:36.039Z,5.70
2019-04-06T19:23:04.865Z,6.77
2019-04-06T19:25:33.586Z,6.17
2019-04-06T19:28:04.789Z,5.90
2019-04-06T19:30:34.019Z,6.07
2019-04-06T19:33:02.814Z,6.93
2019-04-06T19:35:31.665Z,6.07
2019-04-06T19:38:00.373Z,6.10
2019-04-06T19:40:29.283Z,6.97
2019-04-06T19:42:58.225Z,6.63
2019-04-06T19:45:27.070Z,6.57
2019-04-06T19:47:56.617Z,6.93
2019-04-06T19:50:25.951Z,6.27
2019-04-06T19:52:55.219Z,6.40
2019-04-06T19:55:24.546Z,6.57
2019-04-06T19:57:54.352Z,6.20
2019-04-06T20:00:23.447Z,6.00
2019-04-06T20:02:52.167Z,6.53
2019-04-06T20:05:21.991Z,5.83
2019-04-06T20:07:50.711Z,6.53
2019-04-06T20:10:19.448Z,5.77
2019-04-06T20:12:48.384Z,5.77
2019-04-06T20:15:17.302Z,6.90
2019-04-06T20:17:46.242Z,6.07
2019-04-06T20:20:15.911Z,6.73
2019-04-06T20:22:44.770Z,8.00
2019-04-06T20:25:13.714Z,7.10
2019-04-06T20:27:42.466Z,6.97
2019-04-06T20:30:12.309Z,6.77
2019-04-06T20:32:41.094Z,7.03
2019-04-06T20:35:10.104Z,6.73
2019-04-06T20:37:38.818Z,6.17
2019-04-06T20:40:08.743Z,6.37
2019-04-06T20:42:37.471Z,6.53
2019-04-06T20:45:08.325Z,6.10
2019-04-06T20:47:37.092Z,6.27
2019-04-06T20:50:08.068Z,6.03
2019-04-06T20:52:37.083Z,6.47
2019-04-06T20:55:07.222Z,6.20
2019-04-06T20:57:36.399Z,6.17
2019-04-06T21:00:07.274Z,5.90
2019-04-06T21:02:39.311Z,6.50
2019-04-06T21:05:17.740Z,6.10
2019-04-06T21:08:00.237Z,6.00
2019-04-06T21:10:29.240Z,6.47
2019-04-06T21:12:58.891Z,6.03
2019-04-06T21:15:28.287Z,6.00
2019-04-06T21:17:57.211Z,6.33
2019-04-06T21:20:26.481Z,6.47
2019-04-06T21:22:55.252Z,6.87
2019-04-06T21:25:24.227Z,6.27
2019-04-06T21:27:53.510Z,5.80
2019-04-06T21:30:22.466Z,6.03
2019-04-06T21:32:51.527Z,6.87
2019-04-06T21:35:20.216Z,6.53
2019-04-06T21:37:49.306Z,6.47
2019-04-06T21:40:18.264Z,6.53
2019-04-06T21:42:47.491Z,6.67
2019-04-06T21:45:16.284Z,6.73
2019-04-06T21:47:46.432Z,7.07
2019-04-06T21:50:15.303Z,6.90
2019-04-06T21:52:44.122Z,6.50
2019-04-06T21:55:13.968Z,6.57
2019-04-06T21:57:43.153Z,6.77
2019-04-06T22:00:14.658Z,6.40
2019-04-06T22:02:43.757Z,6.63
2019-04-06T22:05:14.855Z,7.00
2019-04-06T22:07:49.644Z,6.73
2019-04-06T22:10:15.715Z,7.17
2019-04-06T22:12:44.529Z,6.97
2019-04-06T22:15:15.261Z,6.83
2019-04-06T22:17:44.036Z,7.03
2019-04-06T22:20:14.326Z,8.33
2019-04-06T22:22:43.228Z,7.87
2019-04-06T22:25:12.196Z,8.60
2019-04-06T22:27:41.060Z,8.27
2019-04-06T22:30:10.486Z,8.40
2019-04-06T22:32:39.359Z,8.93
2019-04-06T22:35:08.994Z,8.00
2019-04-06T22:37:37.893Z,8.53
2019-04-06T22:40:07.610Z,8.90
2019-04-06T22:42:36.633Z,8.27
2019-04-06T22:45:08.376Z,8.70
2019-04-06T22:47:37.200Z,8.27
2019-04-06T22:50:07.864Z,7.93
2019-04-06T22:52:36.773Z,8.33
2019-04-06T22:55:09.577Z,7.90
2019-04-06T22:57:38.908Z,8.53
2019-04-06T23:00:11.305Z,9.27
2019-04-06T23:02:57.360Z,9.03
2019-04-06T23:05:30.965Z,8.80
2019-04-06T23:07:59.920Z,9.03
2019-04-06T23:10:29.430Z,9.23
2019-04-06T23:12:58.223Z,9.27
2019-04-06T23:15:26.947Z,9.30
2019-04-06T23:17:55.749Z,9.23
2019-04-06T23:20:24.543Z,9.30
2019-04-06T23:22:53.795Z,8.60
2019-04-06T23:25:22.639Z,9.27
2019-04-06T23:27:51.341Z,9.40
2019-04-06T23:30:20.070Z,10.43
2019-04-06T23:32:49.029Z,10.10
2019-04-06T23:35:17.732Z,10.23
2019-04-06T23:37:47.090Z,11.63
2019-04-06T23:40:16.697Z,11.00
2019-04-06T23:42:45.866Z,11.20
2019-04-06T23:45:15.149Z,12.23
2019-04-06T23:47:44.472Z,12.97
2019-04-06T23:50:13.382Z,13.20
2019-04-06T23:52:42.338Z,13.13
2019-04-06T23:55:11.947Z,12.57
2019-04-06T23:57:40.756Z,12.33
